« Back
NWS Peachtree City, Ga » Text Product » ATL Terminal Aerodrome Forecast


Printer-friendly Version
Current Version              Previous Versions:   1  2  3  4  5  6  7  8  9  

Terminal Aerodrome Forecast

375
FTUS42 KFFC 132144 AAB
TAFATL
TAF AMD
KATL 132144Z 1322/1424 32011G20KT P6SM SKC
     FM140200 34007KT P6SM FEW200
     FM140600 03004KT P6SM SCT150
     FM141200 10008KT P6SM BKN150
     FM142100 14008KT P6SM BKN150=

USA.gov is the U.S. government's official web portal to all federal, state and local government web resources and services.